createdAt,value
2023-05-09T04:33:41.801Z,3.05
2023-05-09T04:36:44.528Z,3.60
2023-05-09T04:39:47.139Z,2.53
2023-05-09T04:42:50.017Z,2.97
2023-05-09T04:45:52.738Z,2.78
2023-05-09T04:48:55.617Z,3.05
2023-05-09T04:51:58.117Z,2.72
2023-05-09T04:55:01.123Z,2.97
2023-05-09T04:58:03.671Z,3.30
2023-05-09T05:01:06.535Z,2.40
2023-05-09T05:04:09.303Z,2.33
2023-05-09T05:07:11.935Z,3.30
2023-05-09T05:10:14.526Z,2.97
2023-05-09T05:13:17.104Z,2.65
2023-05-09T05:16:19.795Z,2.85
2023-05-09T05:19:22.318Z,2.37
2023-05-09T05:22:25.063Z,2.62
2023-05-09T05:25:27.657Z,2.47
2023-05-09T05:28:30.235Z,2.85
2023-05-09T05:31:32.835Z,2.37
2023-05-09T05:34:35.680Z,2.70
2023-05-09T05:37:39.234Z,2.20
2023-05-09T05:40:41.963Z,2.58
2023-05-09T05:43:44.761Z,2.30
2023-05-09T05:46:47.854Z,2.33
2023-05-09T05:49:50.430Z,2.35
2023-05-09T05:52:52.906Z,2.47
2023-05-09T05:55:55.683Z,2.12
2023-05-09T05:58:58.214Z,2.10
2023-05-09T06:02:00.887Z,2.45
2023-05-09T06:05:04.545Z,2.17
2023-05-09T06:08:07.345Z,2.80
2023-05-09T06:11:09.941Z,2.47
2023-05-09T06:14:12.497Z,2.05
2023-05-09T06:17:15.544Z,1.70
2023-05-09T06:20:18.338Z,2.50
2023-05-09T06:23:22.435Z,2.10
2023-05-09T06:26:25.062Z,1.90
2023-05-09T06:29:27.644Z,2.00
2023-05-09T06:32:30.312Z,2.10
2023-05-09T06:35:32.906Z,2.03
2023-05-09T06:38:35.640Z,2.37
2023-05-09T06:41:38.553Z,1.85
2023-05-09T06:44:41.465Z,1.62
2023-05-09T06:47:44.123Z,1.48
2023-05-09T06:50:46.891Z,1.70
2023-05-09T06:53:49.398Z,1.58
2023-05-09T06:56:51.934Z,1.30
2023-05-09T06:59:54.493Z,2.03
2023-05-09T07:02:57.059Z,1.70
2023-05-09T07:06:00.101Z,1.58
2023-05-09T07:09:03.278Z,1.45
2023-05-09T07:12:06.131Z,1.60
2023-05-09T07:15:09.290Z,1.30
2023-05-09T07:18:12.014Z,1.50
2023-05-09T07:21:14.687Z,1.23
2023-05-09T07:24:17.204Z,1.83
2023-05-09T07:27:19.744Z,1.55
2023-05-09T07:30:22.449Z,1.52
2023-05-09T07:33:25.085Z,1.73
2023-05-09T07:36:27.722Z,1.50
2023-05-09T07:39:30.430Z,1.58
2023-05-09T07:42:33.324Z,1.50
2023-05-09T07:45:36.607Z,2.12
2023-05-09T07:48:39.281Z,2.12
2023-05-09T07:51:41.839Z,1.67
2023-05-09T07:54:44.993Z,1.30
2023-05-09T07:57:47.917Z,1.30
2023-05-09T08:00:50.554Z,2.10
2023-05-09T08:03:53.370Z,1.12
2023-05-09T08:06:56.247Z,1.50
2023-05-09T08:09:58.935Z,1.60
2023-05-09T08:13:01.655Z,1.35
2023-05-09T08:16:04.462Z,1.48
2023-05-09T08:19:07.043Z,1.48
2023-05-09T08:22:09.608Z,1.48
2023-05-09T08:25:14.068Z,1.17
2023-05-09T08:28:16.928Z,1.33
2023-05-09T08:31:19.486Z,1.20
2023-05-09T08:34:22.114Z,1.15
2023-05-09T08:37:24.817Z,2.20
2023-05-09T08:40:27.552Z,1.50
2023-05-09T08:43:30.213Z,1.20
2023-05-09T08:46:37.116Z,1.12
2023-05-09T08:49:40.406Z,1.10
2023-05-09T08:52:43.173Z,1.48
2023-05-09T08:55:48.231Z,1.17
2023-05-09T08:58:51.012Z,1.23
2023-05-09T09:01:53.974Z,1.10
2023-05-09T09:04:56.710Z,1.00
2023-05-09T09:07:59.339Z,1.20
2023-05-09T09:11:01.954Z,1.10
2023-05-09T09:14:27.846Z,1.12
2023-05-09T09:20:32.936Z,1.20
2023-05-09T09:23:35.850Z,1.02
2023-05-09T09:26:47.457Z,1.20
2023-05-09T09:29:50.012Z,1.10
2023-05-09T09:32:52.545Z,1.15
2023-05-09T09:35:56.497Z,1.15
2023-05-09T09:39:00.662Z,1.33
2023-05-09T09:42:14.131Z,1.25
2023-05-09T09:45:17.464Z,1.50
2023-05-09T09:48:24.746Z,1.90
2023-05-09T09:51:27.749Z,1.65
2023-05-09T09:54:30.312Z,1.98
2023-05-09T09:57:39.978Z,1.08
2023-05-09T10:00:42.576Z,1.50
2023-05-09T10:03:46.384Z,1.90
2023-05-09T10:06:54.782Z,1.25
2023-05-09T10:09:57.322Z,1.50
2023-05-09T10:13:02.154Z,1.50
2023-05-09T10:16:05.285Z,1.58
2023-05-09T10:19:07.965Z,1.10
2023-05-09T10:22:11.113Z,1.48
2023-05-09T10:25:21.374Z,1.85
2023-05-09T10:28:25.951Z,1.20
2023-05-09T10:31:29.582Z,1.35
2023-05-09T10:34:32.443Z,1.30
2023-05-09T10:37:34.972Z,1.02
2023-05-09T10:40:37.627Z,1.10
2023-05-09T10:43:40.288Z,1.25
2023-05-09T10:46:43.448Z,1.20
2023-05-09T10:49:46.047Z,1.27
2023-05-09T10:53:11.546Z,1.25
2023-05-09T10:56:30.873Z,1.00
2023-05-09T10:59:41.656Z,1.25
2023-05-09T11:03:06.473Z,1.02
2023-05-09T11:06:09.350Z,1.20
2023-05-09T11:09:33.564Z,1.00
2023-05-09T11:12:58.498Z,1.37
2023-05-09T11:16:01.414Z,1.33
2023-05-09T11:19:06.574Z,1.40
2023-05-09T11:22:27.939Z,1.17
2023-05-09T11:25:30.544Z,1.00
2023-05-09T11:28:36.946Z,1.30
2023-05-09T11:31:39.780Z,1.20
2023-05-09T11:34:46.231Z,1.67
2023-05-09T11:37:50.636Z,1.23
2023-05-09T11:40:53.516Z,1.63
2023-05-09T11:43:57.065Z,1.60
2023-05-09T11:46:59.844Z,1.65
2023-05-09T11:50:03.340Z,1.30
2023-05-09T11:53:08.420Z,1.30
2023-05-09T11:59:14.870Z,1.40
2023-05-09T12:02:17.729Z,1.40
2023-05-09T12:05:21.515Z,1.10
2023-05-09T12:08:25.116Z,1.10
2023-05-09T12:11:30.247Z,1.00
2023-05-09T12:14:34.212Z,1.30
2023-05-09T12:17:36.907Z,1.00
2023-05-09T12:20:50.654Z,1.20
2023-05-09T12:23:55.923Z,1.10
2023-05-09T12:26:59.406Z,1.23
2023-05-09T12:30:02.984Z,1.33
2023-05-09T12:33:05.923Z,0.90
2023-05-09T12:36:10.391Z,1.00
2023-05-09T12:39:13.740Z,0.70
2023-05-09T12:42:16.341Z,1.00
2023-05-09T12:45:19.529Z,1.10
2023-05-09T12:48:23.566Z,1.10
2023-05-09T12:51:26.237Z,1.00
2023-05-09T12:54:29.801Z,0.80
2023-05-09T12:57:32.358Z,1.02
2023-05-09T13:00:44.665Z,1.67
2023-05-09T13:03:54.521Z,1.48
2023-05-09T13:06:58.014Z,1.62
2023-05-09T13:10:01.190Z,1.10
2023-05-09T13:13:04.492Z,0.95
2023-05-09T13:16:09.422Z,0.98
2023-05-09T13:19:15.021Z,1.10
2023-05-09T13:22:17.631Z,1.00
2023-05-09T13:25:20.505Z,0.98
2023-05-09T13:28:23.034Z,0.98
2023-05-09T13:31:25.875Z,1.08
2023-05-09T13:34:28.517Z,0.90
2023-05-09T13:37:31.095Z,1.00
2023-05-09T13:40:33.982Z,0.80
2023-05-09T13:43:36.906Z,0.90
2023-05-09T13:46:39.526Z,1.00
2023-05-09T13:49:42.103Z,1.90
2023-05-09T13:52:44.710Z,1.08
2023-05-09T13:55:47.386Z,0.80
2023-05-09T13:58:49.879Z,0.90
2023-05-09T14:01:52.498Z,0.90
2023-05-09T14:04:55.091Z,1.00
2023-05-09T14:07:57.698Z,1.08
2023-05-09T14:11:00.341Z,0.90
2023-05-09T14:14:02.946Z,0.95
2023-05-09T14:17:05.567Z,1.00
2023-05-09T14:20:08.711Z,1.30
2023-05-09T14:23:11.352Z,0.88
2023-05-09T14:26:14.010Z,1.10
2023-05-09T14:29:16.859Z,0.80
2023-05-09T14:32:19.431Z,0.90
2023-05-09T14:35:22.099Z,0.85
2023-05-09T14:38:24.667Z,0.90
2023-05-09T14:41:27.410Z,0.90
2023-05-09T14:44:29.924Z,1.23
2023-05-09T14:47:32.549Z,1.08
2023-05-09T14:50:35.177Z,0.98
2023-05-09T14:53:41.822Z,0.85
2023-05-09T14:56:44.700Z,0.90
2023-05-09T14:59:47.254Z,1.12
2023-05-09T15:02:50.495Z,1.30
2023-05-09T15:05:53.353Z,1.00
2023-05-09T15:08:55.903Z,1.70
2023-05-09T15:11:58.501Z,1.30
2023-05-09T15:15:14.939Z,1.08
